createdAt,value
2023-03-05T00:02:44.150Z,6.40
2023-03-05T00:05:42.224Z,6.35
2023-03-05T00:08:41.178Z,6.30
2023-03-05T00:11:40.372Z,6.00
2023-03-05T00:14:38.306Z,6.22
2023-03-05T00:17:36.509Z,6.30
2023-03-05T00:20:36.585Z,6.47
2023-03-05T00:23:34.628Z,6.00
2023-03-05T00:26:34.964Z,5.97
2023-03-05T00:29:33.056Z,6.03
2023-03-05T00:32:31.159Z,5.82
2023-03-05T00:35:29.266Z,5.25
2023-03-05T00:38:27.115Z,5.35
2023-03-05T00:41:25.256Z,5.72
2023-03-05T00:44:23.213Z,6.30
2023-03-05T00:47:21.211Z,5.50
2023-03-05T00:50:19.150Z,5.70
2023-03-05T00:53:17.096Z,6.78
2023-03-05T00:56:14.871Z,5.88
2023-03-05T00:59:12.813Z,7.47
2023-03-05T01:02:11.024Z,6.63
2023-03-05T01:05:11.832Z,6.65
2023-03-05T01:08:09.753Z,6.63
2023-03-05T01:11:08.134Z,7.03
2023-03-05T01:14:05.991Z,7.50
2023-03-05T01:17:03.945Z,7.38
2023-03-05T01:20:02.858Z,7.22
2023-03-05T01:23:02.421Z,8.05
2023-03-05T01:26:00.973Z,8.10
2023-03-05T01:28:58.884Z,7.72
2023-03-05T01:31:59.554Z,7.00
2023-03-05T01:34:57.468Z,6.40
2023-03-05T01:37:55.497Z,6.13
2023-03-05T01:40:56.103Z,5.30
2023-03-05T01:43:54.267Z,6.82
2023-03-05T01:46:52.262Z,7.50
2023-03-05T01:49:52.941Z,7.95
2023-03-05T01:52:58.330Z,9.20
2023-03-05T01:55:56.347Z,11.85
2023-03-05T01:59:03.982Z,10.50
2023-03-05T02:02:02.261Z,9.63
2023-03-05T02:05:08.221Z,8.57
2023-03-05T02:08:09.448Z,6.90
2023-03-05T02:11:08.264Z,7.10
2023-03-05T02:14:08.436Z,6.20
2023-03-05T02:17:08.537Z,6.32
2023-03-05T02:20:13.192Z,6.07
2023-03-05T02:23:12.182Z,5.75
2023-03-05T02:26:11.753Z,5.60
2023-03-05T02:29:11.328Z,5.55
2023-03-05T02:32:10.080Z,5.88
2023-03-05T02:35:08.308Z,5.60
2023-03-05T02:38:06.340Z,5.97
2023-03-05T02:41:04.313Z,6.22
2023-03-05T02:44:02.143Z,5.72
2023-03-05T02:47:00.160Z,6.55
2023-03-05T02:49:58.328Z,7.90
2023-03-05T02:52:56.306Z,6.70
2023-03-05T02:55:54.168Z,6.40
2023-03-05T02:58:52.277Z,6.78
2023-03-05T03:01:50.085Z,6.95
2023-03-05T03:04:48.100Z,6.35
2023-03-05T03:07:46.212Z,6.22
2023-03-05T03:10:44.166Z,5.20
2023-03-05T03:13:42.633Z,5.60
2023-03-05T03:16:40.641Z,5.72
2023-03-05T03:19:39.371Z,5.28
2023-03-05T03:22:37.337Z,5.80
2023-03-05T03:25:35.547Z,6.20
2023-03-05T03:28:33.443Z,6.35
2023-03-05T03:31:31.371Z,5.57
2023-03-05T03:34:29.417Z,6.22
2023-03-05T03:37:27.439Z,6.35
2023-03-05T03:40:25.347Z,6.55
2023-03-05T03:43:23.224Z,6.35
2023-03-05T03:46:21.330Z,6.20
2023-03-05T03:49:22.802Z,5.97
2023-03-05T03:52:20.891Z,6.10
2023-03-05T03:55:19.279Z,7.18
2023-03-05T03:58:17.280Z,7.53
2023-03-05T04:01:15.321Z,8.05
2023-03-05T04:04:14.530Z,7.57
2023-03-05T04:07:12.516Z,8.52
2023-03-05T04:10:11.176Z,8.02
2023-03-05T04:13:09.434Z,8.68
2023-03-05T04:16:07.838Z,7.38
2023-03-05T04:19:05.689Z,8.77
2023-03-05T04:22:03.594Z,8.15
2023-03-05T04:25:01.391Z,8.50
2023-03-05T04:27:59.390Z,7.97
2023-03-05T04:30:57.256Z,8.07
2023-03-05T04:33:55.243Z,8.10
2023-03-05T04:36:53.065Z,8.23
2023-03-05T04:39:51.236Z,8.02
2023-03-05T04:42:49.099Z,7.85
2023-03-05T04:45:47.201Z,7.13
2023-03-05T04:48:45.037Z,6.93
2023-03-05T04:51:43.167Z,6.32
2023-03-05T04:54:41.638Z,5.90
2023-03-05T04:57:40.424Z,5.85
2023-03-05T05:00:38.607Z,6.57
2023-03-05T05:03:36.528Z,9.10
2023-03-05T05:06:34.435Z,10.32
2023-03-05T05:09:32.352Z,12.82
2023-03-05T05:12:31.442Z,12.88
2023-03-05T05:15:29.326Z,17.27
2023-03-05T05:18:27.364Z,16.38
2023-03-05T05:21:25.525Z,17.88
2023-03-05T05:24:23.356Z,17.70
2023-03-05T05:27:21.685Z,16.30
2023-03-05T05:30:20.533Z,16.70
2023-03-05T05:33:18.499Z,20.05
2023-03-05T05:36:19.661Z,29.92
2023-03-05T05:39:19.557Z,39.67
2023-03-05T05:42:19.604Z,41.60
2023-03-05T05:45:17.572Z,40.65
2023-03-05T05:48:15.575Z,41.55
2023-03-05T05:51:16.710Z,36.65
2023-03-05T05:54:15.394Z,43.13
2023-03-05T05:57:13.375Z,43.70
2023-03-05T06:00:13.276Z,40.95
2023-03-05T06:03:11.269Z,40.40
2023-03-05T06:06:13.946Z,36.90
2023-03-05T06:09:12.296Z,39.28
2023-03-05T06:12:10.277Z,41.00
2023-03-05T06:15:08.727Z,42.60
2023-03-05T06:18:06.690Z,41.47
2023-03-05T06:21:08.265Z,34.55
2023-03-05T06:24:06.589Z,34.63
2023-03-05T06:27:05.416Z,32.78
2023-03-05T06:30:04.274Z,29.00
2023-03-05T06:33:02.484Z,35.97
2023-03-05T06:36:00.940Z,36.72
2023-03-05T06:39:02.496Z,34.58
2023-03-05T06:42:00.308Z,35.58
2023-03-05T06:44:58.247Z,35.55
2023-03-05T06:47:56.024Z,36.15
2023-03-05T06:50:53.960Z,39.25
2023-03-05T06:53:52.679Z,37.67
2023-03-05T06:56:50.710Z,35.25
2023-03-05T06:59:48.488Z,37.80
2023-03-05T07:02:46.393Z,35.80
2023-03-05T07:05:45.199Z,33.50
2023-03-05T07:08:45.328Z,31.88
2023-03-05T07:11:46.519Z,32.40
2023-03-05T07:14:44.402Z,33.25
2023-03-05T07:17:42.185Z,33.58
2023-03-05T07:20:40.274Z,33.17
2023-03-05T07:23:38.147Z,37.25
2023-03-05T07:26:38.980Z,35.22
2023-03-05T07:29:37.465Z,33.40
2023-03-05T07:32:36.646Z,29.08
2023-03-05T07:35:34.487Z,26.60
2023-03-05T07:38:33.032Z,23.02
2023-03-05T07:41:30.863Z,17.42
2023-03-05T07:44:28.739Z,13.57
2023-03-05T07:47:26.766Z,7.05
2023-03-05T07:50:25.207Z,6.03
2023-03-05T07:53:25.774Z,7.70
2023-03-05T07:56:25.574Z,10.65
2023-03-05T07:59:23.593Z,11.15
2023-03-05T08:02:22.222Z,10.20
2023-03-05T08:05:20.056Z,12.60
2023-03-05T08:08:18.478Z,11.68
2023-03-05T08:11:17.055Z,10.02
2023-03-05T08:14:15.152Z,12.00
2023-03-05T08:17:12.966Z,12.55
2023-03-05T08:20:11.975Z,14.85
2023-03-05T08:23:11.507Z,18.00
2023-03-05T08:26:15.806Z,15.68
2023-03-05T08:29:17.211Z,25.30
2023-03-05T08:32:15.301Z,30.38
2023-03-05T08:35:16.398Z,31.05
2023-03-05T08:38:15.306Z,40.63
2023-03-05T08:41:14.206Z,35.33
2023-03-05T08:44:12.684Z,41.42
2023-03-05T08:47:13.785Z,52.28
2023-03-05T08:50:15.663Z,47.45
2023-03-05T08:53:20.010Z,41.73
2023-03-05T08:56:18.020Z,42.55
2023-03-05T08:59:18.156Z,41.80
2023-03-05T09:02:19.085Z,40.22
2023-03-05T09:05:18.270Z,35.10
2023-03-05T09:08:16.751Z,45.38
2023-03-05T09:11:17.147Z,51.40
2023-03-05T09:14:15.467Z,49.60
2023-03-05T09:17:13.137Z,47.67
2023-03-05T09:20:14.457Z,50.90
2023-03-05T09:23:49.749Z,51.05
2023-03-05T09:26:47.728Z,47.00
2023-03-05T09:29:45.661Z,46.80
2023-03-05T09:32:43.830Z,49.38
2023-03-05T09:35:41.711Z,47.30
2023-03-05T09:38:41.527Z,48.35
2023-03-05T09:42:10.408Z,47.72
2023-03-05T09:45:39.166Z,50.50
2023-03-05T09:48:53.520Z,47.17
2023-03-05T09:51:56.548Z,48.42
2023-03-05T09:54:57.797Z,46.35
2023-03-05T09:58:02.899Z,44.80
2023-03-05T10:01:05.727Z,40.88
2023-03-05T10:07:30.421Z,45.90
2023-03-05T10:10:44.000Z,48.72
2023-03-05T10:13:46.131Z,52.88
2023-03-05T10:16:56.923Z,51.80
2023-03-05T10:20:16.303Z,52.85
2023-03-05T10:23:30.302Z,48.40
2023-03-05T10:26:48.908Z,47.13
2023-03-05T10:30:00.235Z,48.72
2023-03-05T10:33:09.911Z,48.28
2023-03-05T10:36:28.024Z,52.75
2023-03-05T10:39:51.201Z,45.95
2023-03-05T10:43:19.705Z,42.25
2023-03-05T10:46:21.089Z,40.70
2023-03-05T10:49:23.530Z,42.08
2023-03-05T10:52:27.638Z,39.05
2023-03-05T10:55:25.557Z,37.75
2023-03-05T10:58:28.459Z,38.60
2023-03-05T11:01:29.115Z,39.88
2023-03-05T11:04:29.995Z,40.08
2023-03-05T11:07:38.033Z,40.25
2023-03-05T11:10:35.858Z,39.13
2023-03-05T11:13:37.037Z,37.78
2023-03-05T11:16:50.865Z,39.20
2023-03-05T11:19:48.877Z,37.15
2023-03-05T11:23:08.026Z,38.33
2023-03-05T11:26:22.730Z,37.28
2023-03-05T11:29:24.881Z,40.97
2023-03-05T11:32:28.333Z,40.20
2023-03-05T11:35:38.638Z,45.70
2023-03-05T11:38:50.386Z,47.53
2023-03-05T11:42:06.896Z,43.55
2023-03-05T11:45:09.500Z,43.58
2023-03-05T11:48:21.432Z,39.97
2023-03-05T11:51:26.349Z,43.55
2023-03-05T11:54:32.118Z,43.08
2023-03-05T11:57:35.687Z,44.33
2023-03-05T12:00:39.384Z,43.78
2023-03-05T12:03:42.405Z,41.25
2023-03-05T12:06:59.477Z,37.58
2023-03-05T12:09:57.814Z,34.83
2023-03-05T12:13:29.619Z,33.22
2023-03-05T12:16:54.517Z,33.70
2023-03-05T12:20:05.131Z,39.30
2023-03-05T12:23:03.121Z,37.15
2023-03-05T12:26:05.861Z,41.17
2023-03-05T12:29:03.802Z,43.42
2023-03-05T12:32:06.132Z,44.28
2023-03-05T12:35:24.749Z,40.78
2023-03-05T12:38:39.361Z,42.60
2023-03-05T12:41:38.235Z,41.50
2023-03-05T12:44:36.090Z,39.47
2023-03-05T12:47:34.046Z,35.70
2023-03-05T12:50:52.455Z,33.75
2023-03-05T12:53:54.571Z,31.13
2023-03-05T12:56:54.358Z,33.40
2023-03-05T13:00:26.571Z,31.73
2023-03-05T13:03:32.904Z,27.48
2023-03-05T13:06:41.397Z,26.20
2023-03-05T13:09:39.342Z,24.77
2023-03-05T13:12:41.847Z,25.05
2023-03-05T13:15:40.171Z,22.40
2023-03-05T13:18:41.772Z,22.48
2023-03-05T13:21:39.626Z,20.67
2023-03-05T13:24:40.598Z,20.70
2023-03-05T13:27:38.411Z,19.25
2023-03-05T13:30:36.358Z,17.55
2023-03-05T13:33:36.601Z,15.68
2023-03-05T13:36:34.755Z,16.83
2023-03-05T13:39:36.175Z,17.88
2023-03-05T13:42:39.539Z,18.02
2023-03-05T13:45:40.739Z,17.15
2023-03-05T13:48:41.968Z,16.70
2023-03-05T13:51:45.542Z,16.45
2023-03-05T13:54:43.696Z,14.18
2023-03-05T13:57:45.237Z,14.88
2023-03-05T14:00:43.496Z,14.20
2023-03-05T14:03:42.558Z,13.82
2023-03-05T14:06:56.473Z,17.90
2023-03-05T14:09:54.971Z,16.48
2023-03-05T14:12:55.771Z,17.02
2023-03-05T14:16:10.431Z,17.35
2023-03-05T14:19:37.078Z,17.23
2023-03-05T14:22:37.686Z,16.60
2023-03-05T14:25:40.188Z,16.70
2023-03-05T14:28:38.257Z,16.55
2023-03-05T14:32:00.504Z,16.08
2023-03-05T14:35:03.157Z,13.80
2023-03-05T14:38:01.801Z,14.10
2023-03-05T14:41:02.388Z,13.05
2023-03-05T14:44:00.649Z,12.07
2023-03-05T14:47:01.070Z,13.40
2023-03-05T14:49:59.311Z,11.02
2023-03-05T14:53:02.299Z,11.25
2023-03-05T14:56:02.280Z,11.38
2023-03-05T14:59:03.447Z,11.77
2023-03-05T15:02:14.606Z,10.55
2023-03-05T15:05:15.622Z,10.45
2023-03-05T15:08:20.600Z,10.27
2023-03-05T15:11:20.384Z,9.73
2023-03-05T15:14:18.294Z,9.95
2023-03-05T15:17:21.375Z,9.75
2023-03-05T15:20:23.781Z,10.93
2023-03-05T15:23:29.647Z,9.80
2023-03-05T15:26:27.570Z,10.35
2023-03-05T15:29:25.383Z,11.65
2023-03-05T15:32:31.555Z,11.88
2023-03-05T15:35:35.568Z,10.93
2023-03-05T15:38:33.580Z,10.23
2023-03-05T15:41:34.343Z,9.95
2023-03-05T15:44:32.283Z,10.68
2023-03-05T15:47:33.109Z,10.10
2023-03-05T15:50:31.401Z,8.90
2023-03-05T15:53:29.383Z,8.98
2023-03-05T15:56:30.230Z,8.32
2023-03-05T15:59:28.144Z,9.73
2023-03-05T16:02:26.107Z,8.82
2023-03-05T16:05:24.379Z,8.73
2023-03-05T16:08:22.333Z,8.88
2023-03-05T16:11:22.760Z,9.00
2023-03-05T16:14:24.220Z,8.55
2023-03-05T16:17:23.149Z,8.75
2023-03-05T16:20:24.255Z,8.70
2023-03-05T16:23:22.941Z,9.70
2023-03-05T16:26:21.063Z,9.05
2023-03-05T16:29:18.914Z,9.25
2023-03-05T16:32:20.577Z,9.10
2023-03-05T16:35:19.121Z,10.45
2023-03-05T16:38:17.827Z,9.52
2023-03-05T16:41:19.057Z,8.75
2023-03-05T16:44:17.029Z,9.20
2023-03-05T16:47:15.074Z,9.13
2023-03-05T16:50:13.741Z,8.48
2023-03-05T16:53:11.612Z,9.35
2023-03-05T16:56:12.511Z,9.07
2023-03-05T16:59:10.602Z,9.32
2023-03-05T17:02:13.685Z,8.77
2023-03-05T17:05:13.710Z,8.80
2023-03-05T17:08:11.710Z,8.90
2023-03-05T17:11:11.160Z,8.43
2023-03-05T17:14:09.397Z,8.90
2023-03-05T17:17:07.184Z,9.25
2023-03-05T17:20:05.862Z,9.13
2023-03-05T17:23:04.089Z,8.40
2023-03-05T17:26:09.225Z,8.10
2023-03-05T17:29:10.332Z,8.10
2023-03-05T17:32:08.318Z,8.00
2023-03-05T17:35:06.571Z,7.95
2023-03-05T17:38:06.054Z,8.57
2023-03-05T17:41:04.420Z,9.70
2023-03-05T17:44:02.723Z,8.10
2023-03-05T17:47:00.555Z,8.88
2023-03-05T17:49:58.552Z,9.13
2023-03-05T17:52:56.519Z,8.38
2023-03-05T17:55:54.578Z,7.43
2023-03-05T17:58:53.617Z,6.90
2023-03-05T18:01:51.881Z,8.38
2023-03-05T18:04:52.573Z,7.45
2023-03-05T18:07:51.177Z,6.80
2023-03-05T18:10:49.211Z,6.63
2023-03-05T18:13:47.200Z,7.28
2023-03-05T18:16:45.523Z,7.15
2023-03-05T18:19:43.691Z,6.82
2023-03-05T18:22:41.611Z,6.50
2023-03-05T18:25:39.576Z,6.40
2023-03-05T18:28:37.422Z,7.00
2023-03-05T18:31:35.494Z,6.07
2023-03-05T18:34:33.466Z,6.40
2023-03-05T18:37:34.269Z,6.93
2023-03-05T18:40:35.675Z,6.40
2023-03-05T18:43:33.631Z,7.35
2023-03-05T18:46:31.575Z,8.63
2023-03-05T18:49:30.237Z,8.00
2023-03-05T18:52:28.326Z,9.35
2023-03-05T18:55:29.459Z,7.28
2023-03-05T18:58:27.375Z,6.60
2023-03-05T19:01:25.380Z,6.45
2023-03-05T19:04:24.336Z,6.70
2023-03-05T19:07:22.510Z,7.25
2023-03-05T19:10:20.636Z,7.43
2023-03-05T19:13:51.354Z,5.93
2023-03-05T19:16:49.374Z,6.38
2023-03-05T19:19:52.284Z,7.60
2023-03-05T19:22:51.512Z,6.50
2023-03-05T19:25:49.478Z,6.30
2023-03-05T19:28:47.505Z,6.53
2023-03-05T19:31:45.454Z,5.88
2023-03-05T19:34:45.497Z,6.75
2023-03-05T19:37:46.411Z,6.13
2023-03-05T19:40:44.279Z,6.30
2023-03-05T19:43:42.530Z,7.35
2023-03-05T19:46:42.351Z,6.43
2023-03-05T19:49:40.416Z,6.97
2023-03-05T19:52:38.381Z,6.50
2023-03-05T19:55:41.535Z,6.63
2023-03-05T20:01:41.125Z,6.70
2023-03-05T20:04:40.962Z,6.43
2023-03-05T20:07:38.930Z,6.93
2023-03-05T20:10:36.772Z,6.43
2023-03-05T20:13:34.902Z,6.50
2023-03-05T20:16:36.597Z,6.05
2023-03-05T20:19:34.681Z,6.68
2023-03-05T20:22:32.629Z,7.10
2023-03-05T20:25:30.609Z,6.68
2023-03-05T20:28:28.452Z,7.35
2023-03-05T20:31:27.701Z,6.30
2023-03-05T20:34:27.470Z,6.90
2023-03-05T20:37:30.854Z,6.10
2023-03-05T20:40:28.790Z,6.35
2023-03-05T20:43:32.331Z,6.43
2023-03-05T20:46:33.108Z,6.22
2023-03-05T20:49:31.240Z,6.35
2023-03-05T20:52:29.041Z,6.57
2023-03-05T20:55:29.329Z,6.03
2023-03-05T20:58:27.133Z,6.18
2023-03-05T21:01:25.667Z,5.78
2023-03-05T21:04:23.738Z,6.93
2023-03-05T21:07:21.872Z,6.35
2023-03-05T21:10:20.749Z,5.88
2023-03-05T21:13:18.802Z,6.22
2023-03-05T21:16:21.406Z,5.75
2023-03-05T21:19:19.463Z,6.63
2023-03-05T21:22:17.288Z,5.53
2023-03-05T21:25:21.679Z,6.55
2023-03-05T21:28:19.569Z,5.80
2023-03-05T21:31:21.605Z,5.85
2023-03-05T21:34:20.173Z,5.88
2023-03-05T21:37:18.189Z,6.28
2023-03-05T21:40:18.271Z,6.35
2023-03-05T21:43:19.371Z,5.88
2023-03-05T21:46:17.268Z,5.80
2023-03-05T21:49:15.362Z,5.40
2023-03-05T21:52:13.319Z,5.93
2023-03-05T21:55:16.915Z,6.25
2023-03-05T21:58:19.024Z,6.43
2023-03-05T22:01:19.935Z,5.85
2023-03-05T22:04:17.785Z,6.20
2023-03-05T22:07:17.000Z,6.40
2023-03-05T22:10:17.951Z,6.50
2023-03-05T22:13:18.247Z,5.40
2023-03-05T22:16:25.704Z,5.47
2023-03-05T22:19:23.870Z,5.65
2023-03-05T22:22:21.695Z,5.60
2023-03-05T22:25:19.700Z,5.63
2023-03-05T22:28:17.565Z,6.15
2023-03-05T22:31:24.409Z,5.72
2023-03-05T22:34:22.241Z,5.90
2023-03-05T22:37:21.328Z,5.70
2023-03-05T22:40:20.985Z,5.85
2023-03-05T22:43:20.434Z,6.22
2023-03-05T22:46:25.526Z,5.85
2023-03-05T22:49:23.541Z,5.07
2023-03-05T22:52:21.390Z,6.15
2023-03-05T22:55:19.501Z,5.70
2023-03-05T22:58:17.492Z,5.78
2023-03-05T23:01:19.322Z,5.55
2023-03-05T23:04:29.498Z,5.80
2023-03-05T23:07:31.241Z,5.28
2023-03-05T23:10:29.945Z,5.25
2023-03-05T23:13:28.205Z,6.05
2023-03-05T23:16:26.196Z,5.60
2023-03-05T23:19:24.183Z,5.30
2023-03-05T23:22:22.470Z,5.65
2023-03-05T23:25:21.772Z,5.80
2023-03-05T23:28:21.059Z,5.60
2023-03-05T23:31:20.046Z,5.30
2023-03-05T23:34:17.894Z,5.43
2023-03-05T23:37:15.899Z,5.43
2023-03-05T23:40:18.579Z,5.32
2023-03-05T23:43:18.912Z,5.65
2023-03-05T23:46:16.746Z,6.50
2023-03-05T23:49:14.731Z,5.60
2023-03-05T23:52:12.721Z,5.90
2023-03-05T23:55:17.170Z,6.15
2023-03-05T23:58:15.580Z,5.32
